sensor_id;sensor_type;location;lat;lon;timestamp;P1;durP1;ratioP1;P2;durP2;ratioP2
50683;SDS011;36654;45.042;38.994;2023-03-23T00:01:08;20.20;;;9.88;;
50683;SDS011;36654;45.042;38.994;2023-03-23T00:03:36;19.80;;;9.43;;
50683;SDS011;36654;45.042;38.994;2023-03-23T00:06:02;17.60;;;9.25;;
50683;SDS011;36654;45.042;38.994;2023-03-23T00:08:30;18.08;;;10.13;;
50683;SDS011;36654;45.042;38.994;2023-03-23T00:10:56;25.65;;;10.57;;
50683;SDS011;36654;45.042;38.994;2023-03-23T00:13:25;19.35;;;10.23;;
50683;SDS011;36654;45.042;38.994;2023-03-23T00:15:52;18.52;;;9.88;;
50683;SDS011;36654;45.042;38.994;2023-03-23T00:18:18;17.98;;;9.52;;
50683;SDS011;36654;45.042;38.994;2023-03-23T00:20:49;18.63;;;9.90;;
50683;SDS011;36654;45.042;38.994;2023-03-23T00:23:17;22.08;;;10.82;;
50683;SDS011;36654;45.042;38.994;2023-03-23T00:25:47;20.80;;;10.45;;
50683;SDS011;36654;45.042;38.994;2023-03-23T00:28:23;21.10;;;10.60;;
50683;SDS011;36654;45.042;38.994;2023-03-23T00:30:58;19.23;;;10.73;;
50683;SDS011;36654;45.042;38.994;2023-03-23T00:33:26;21.27;;;11.27;;
50683;SDS011;36654;45.042;38.994;2023-03-23T00:38:21;21.15;;;10.77;;
50683;SDS011;36654;45.042;38.994;2023-03-23T00:40:48;22.13;;;11.30;;
50683;SDS011;36654;45.042;38.994;2023-03-23T00:43:15;19.40;;;11.50;;
50683;SDS011;36654;45.042;38.994;2023-03-23T00:45:42;19.23;;;11.13;;
50683;SDS011;36654;45.042;38.994;2023-03-23T00:48:10;21.45;;;10.80;;
50683;SDS011;36654;45.042;38.994;2023-03-23T00:50:39;19.33;;;10.63;;
50683;SDS011;36654;45.042;38.994;2023-03-23T00:53:05;21.73;;;11.93;;
50683;SDS011;36654;45.042;38.994;2023-03-23T00:55:30;22.90;;;10.95;;
50683;SDS011;36654;45.042;38.994;2023-03-23T00:57:56;23.70;;;11.18;;
50683;SDS011;36654;45.042;38.994;2023-03-23T01:00:22;23.38;;;10.88;;
50683;SDS011;36654;45.042;38.994;2023-03-23T01:02:48;20.83;;;10.98;;
50683;SDS011;36654;45.042;38.994;2023-03-23T01:05:20;22.35;;;11.60;;
50683;SDS011;36654;45.042;38.994;2023-03-23T01:07:46;22.40;;;10.68;;
50683;SDS011;36654;45.042;38.994;2023-03-23T01:10:12;19.95;;;10.70;;
50683;SDS011;36654;45.042;38.994;2023-03-23T01:15:07;22.17;;;10.95;;
50683;SDS011;36654;45.042;38.994;2023-03-23T01:17:33;23.50;;;11.07;;
50683;SDS011;36654;45.042;38.994;2023-03-23T01:19:59;19.10;;;11.73;;
50683;SDS011;36654;45.042;38.994;2023-03-23T01:22:25;26.38;;;10.38;;
50683;SDS011;36654;45.042;38.994;2023-03-23T01:24:51;19.42;;;10.25;;
50683;SDS011;36654;45.042;38.994;2023-03-23T01:27:16;19.60;;;11.50;;
50683;SDS011;36654;45.042;38.994;2023-03-23T01:29:42;20.50;;;10.98;;
50683;SDS011;36654;45.042;38.994;2023-03-23T01:32:07;28.85;;;11.10;;
50683;SDS011;36654;45.042;38.994;2023-03-23T01:34:33;24.00;;;11.60;;
50683;SDS011;36654;45.042;38.994;2023-03-23T01:36:59;21.45;;;11.23;;
50683;SDS011;36654;45.042;38.994;2023-03-23T01:39:24;22.83;;;11.75;;
50683;SDS011;36654;45.042;38.994;2023-03-23T01:41:50;19.90;;;11.25;;
50683;SDS011;36654;45.042;38.994;2023-03-23T01:46:41;20.15;;;11.13;;
50683;SDS011;36654;45.042;38.994;2023-03-23T01:49:50;21.58;;;10.80;;
50683;SDS011;36654;45.042;38.994;2023-03-23T01:52:06;22.85;;;10.60;;
50683;SDS011;36654;45.042;38.994;2023-03-23T01:54:38;23.33;;;10.35;;
50683;SDS011;36654;45.042;38.994;2023-03-23T01:59:38;19.92;;;11.10;;
50683;SDS011;36654;45.042;38.994;2023-03-23T02:02:07;25.92;;;10.82;;
50683;SDS011;36654;45.042;38.994;2023-03-23T02:04:36;19.95;;;10.65;;
50683;SDS011;36654;45.042;38.994;2023-03-23T02:07:03;18.75;;;10.63;;
50683;SDS011;36654;45.042;38.994;2023-03-23T02:09:29;17.42;;;9.65;;
50683;SDS011;36654;45.042;38.994;2023-03-23T02:11:55;20.38;;;10.70;;
50683;SDS011;36654;45.042;38.994;2023-03-23T02:14:21;20.95;;;10.60;;
50683;SDS011;36654;45.042;38.994;2023-03-23T02:27:17;26.90;;;11.15;;
50683;SDS011;36654;45.042;38.994;2023-03-23T02:32:52;22.35;;;11.90;;
50683;SDS011;36654;45.042;38.994;2023-03-23T02:35:42;22.67;;;11.38;;
50683;SDS011;36654;45.042;38.994;2023-03-23T02:40:44;20.65;;;10.98;;
50683;SDS011;36654;45.042;38.994;2023-03-23T02:43:13;22.65;;;12.13;;
50683;SDS011;36654;45.042;38.994;2023-03-23T02:45:42;21.63;;;11.43;;
50683;SDS011;36654;45.042;38.994;2023-03-23T02:48:10;20.85;;;12.30;;
50683;SDS011;36654;45.042;38.994;2023-03-23T02:50:40;18.80;;;11.65;;
50683;SDS011;36654;45.042;38.994;2023-03-23T02:53:10;22.20;;;12.65;;
50683;SDS011;36654;45.042;38.994;2023-03-23T02:55:39;24.92;;;12.77;;
50683;SDS011;36654;45.042;38.994;2023-03-23T02:58:08;21.95;;;12.43;;
50683;SDS011;36654;45.042;38.994;2023-03-23T03:00:35;26.02;;;13.55;;
50683;SDS011;36654;45.042;38.994;2023-03-23T03:03:01;30.30;;;12.23;;
50683;SDS011;36654;45.042;38.994;2023-03-23T03:11:14;23.55;;;12.80;;
50683;SDS011;36654;45.042;38.994;2023-03-23T03:16:11;22.05;;;11.50;;
50683;SDS011;36654;45.042;38.994;2023-03-23T03:18:47;22.08;;;12.18;;
50683;SDS011;36654;45.042;38.994;2023-03-23T03:21:16;24.02;;;12.32;;
50683;SDS011;36654;45.042;38.994;2023-03-23T03:23:45;26.30;;;12.30;;
50683;SDS011;36654;45.042;38.994;2023-03-23T03:26:14;29.80;;;13.63;;
50683;SDS011;36654;45.042;38.994;2023-03-23T03:28:42;25.33;;;14.23;;
50683;SDS011;36654;45.042;38.994;2023-03-23T03:31:13;25.42;;;13.68;;
50683;SDS011;36654;45.042;38.994;2023-03-23T03:33:40;22.20;;;13.00;;
50683;SDS011;36654;45.042;38.994;2023-03-23T03:36:06;26.70;;;12.77;;
50683;SDS011;36654;45.042;38.994;2023-03-23T03:38:40;22.27;;;12.45;;
50683;SDS011;36654;45.042;38.994;2023-03-23T03:41:12;28.48;;;12.95;;
50683;SDS011;36654;45.042;38.994;2023-03-23T03:43:38;25.58;;;12.70;;
50683;SDS011;36654;45.042;38.994;2023-03-23T03:46:03;24.25;;;14.15;;
50683;SDS011;36654;45.042;38.994;2023-03-23T03:48:29;25.65;;;13.30;;
50683;SDS011;36654;45.042;38.994;2023-03-23T03:50:55;20.85;;;13.45;;
50683;SDS011;36654;45.042;38.994;2023-03-23T03:53:22;23.58;;;14.23;;
50683;SDS011;36654;45.042;38.994;2023-03-23T03:55:49;25.65;;;13.32;;
50683;SDS011;36654;45.042;38.994;2023-03-23T03:58:15;31.23;;;15.52;;
50683;SDS011;36654;45.042;38.994;2023-03-23T04:00:41;26.15;;;14.65;;
50683;SDS011;36654;45.042;38.994;2023-03-23T04:03:08;25.58;;;13.55;;
50683;SDS011;36654;45.042;38.994;2023-03-23T04:05:34;21.77;;;12.73;;
50683;SDS011;36654;45.042;38.994;2023-03-23T04:08:01;24.35;;;12.57;;
50683;SDS011;36654;45.042;38.994;2023-03-23T04:10:28;26.73;;;13.88;;
50683;SDS011;36654;45.042;38.994;2023-03-23T04:12:55;29.00;;;13.95;;
50683;SDS011;36654;45.042;38.994;2023-03-23T04:15:21;23.35;;;12.40;;
50683;SDS011;36654;45.042;38.994;2023-03-23T04:17:47;20.83;;;12.77;;
50683;SDS011;36654;45.042;38.994;2023-03-23T04:20:12;27.17;;;13.57;;
50683;SDS011;36654;45.042;38.994;2023-03-23T04:22:48;24.75;;;13.07;;
50683;SDS011;36654;45.042;38.994;2023-03-23T04:25:17;27.20;;;13.63;;
50683;SDS011;36654;45.042;38.994;2023-03-23T04:27:46;25.35;;;13.50;;
50683;SDS011;36654;45.042;38.994;2023-03-23T04:30:18;28.02;;;13.85;;
50683;SDS011;36654;45.042;38.994;2023-03-23T04:32:50;19.88;;;12.23;;
50683;SDS011;36654;45.042;38.994;2023-03-23T04:35:18;35.13;;;13.85;;
50683;SDS011;36654;45.042;38.994;2023-03-23T04:37:45;29.60;;;15.38;;
50683;SDS011;36654;45.042;38.994;2023-03-23T04:40:11;25.83;;;14.30;;
50683;SDS011;36654;45.042;38.994;2023-03-23T04:42:40;31.02;;;15.57;;
50683;SDS011;36654;45.042;38.994;2023-03-23T04:45:11;30.27;;;16.10;;
50683;SDS011;36654;45.042;38.994;2023-03-23T04:47:39;31.00;;;15.13;;
50683;SDS011;36654;45.042;38.994;2023-03-23T04:50:09;28.25;;;15.40;;
50683;SDS011;36654;45.042;38.994;2023-03-23T04:52:37;26.98;;;15.50;;
50683;SDS011;36654;45.042;38.994;2023-03-23T04:55:10;31.33;;;14.95;;
50683;SDS011;36654;45.042;38.994;2023-03-23T04:57:37;27.52;;;13.50;;
50683;SDS011;36654;45.042;38.994;2023-03-23T05:00:03;24.75;;;13.20;;
50683;SDS011;36654;45.042;38.994;2023-03-23T05:02:37;25.27;;;13.85;;
50683;SDS011;36654;45.042;38.994;2023-03-23T05:05:07;20.17;;;13.07;;
50683;SDS011;36654;45.042;38.994;2023-03-23T05:07:36;25.02;;;14.20;;
50683;SDS011;36654;45.042;38.994;2023-03-23T05:10:03;27.10;;;13.88;;
50683;SDS011;36654;45.042;38.994;2023-03-23T05:12:29;29.70;;;13.02;;
50683;SDS011;36654;45.042;38.994;2023-03-23T05:14:55;25.85;;;12.75;;
50683;SDS011;36654;45.042;38.994;2023-03-23T05:17:20;25.92;;;12.55;;
50683;SDS011;36654;45.042;38.994;2023-03-23T05:19:49;22.23;;;12.63;;
50683;SDS011;36654;45.042;38.994;2023-03-23T05:22:16;23.95;;;12.50;;
50683;SDS011;36654;45.042;38.994;2023-03-23T05:24:41;24.58;;;13.55;;
50683;SDS011;36654;45.042;38.994;2023-03-23T05:27:08;22.40;;;12.57;;
50683;SDS011;36654;45.042;38.994;2023-03-23T05:29:35;24.05;;;13.68;;
50683;SDS011;36654;45.042;38.994;2023-03-23T05:32:04;22.88;;;11.73;;
50683;SDS011;36654;45.042;38.994;2023-03-23T05:34:30;25.00;;;13.43;;
50683;SDS011;36654;45.042;38.994;2023-03-23T05:36:59;32.47;;;13.40;;
50683;SDS011;36654;45.042;38.994;2023-03-23T05:39:27;19.73;;;12.25;;
50683;SDS011;36654;45.042;38.994;2023-03-23T05:41:53;21.95;;;13.38;;
50683;SDS011;36654;45.042;38.994;2023-03-23T05:44:19;30.52;;;12.77;;
50683;SDS011;36654;45.042;38.994;2023-03-23T05:46:45;21.73;;;12.60;;
50683;SDS011;36654;45.042;38.994;2023-03-23T05:49:10;24.73;;;13.60;;
50683;SDS011;36654;45.042;38.994;2023-03-23T05:51:36;23.45;;;13.15;;
50683;SDS011;36654;45.042;38.994;2023-03-23T05:54:02;24.40;;;12.90;;
50683;SDS011;36654;45.042;38.994;2023-03-23T05:56:28;25.10;;;12.45;;
50683;SDS011;36654;45.042;38.994;2023-03-23T05:58:55;25.88;;;13.73;;
50683;SDS011;36654;45.042;38.994;2023-03-23T06:01:21;24.63;;;11.85;;
50683;SDS011;36654;45.042;38.994;2023-03-23T06:03:48;25.15;;;13.68;;
50683;SDS011;36654;45.042;38.994;2023-03-23T06:06:16;26.88;;;14.38;;
50683;SDS011;36654;45.042;38.994;2023-03-23T06:08:43;21.60;;;12.63;;
50683;SDS011;36654;45.042;38.994;2023-03-23T06:11:09;20.02;;;12.25;;
50683;SDS011;36654;45.042;38.994;2023-03-23T06:13:35;27.05;;;12.93;;
50683;SDS011;36654;45.042;38.994;2023-03-23T06:16:02;20.10;;;12.07;;
50683;SDS011;36654;45.042;38.994;2023-03-23T06:18:29;22.23;;;12.95;;
50683;SDS011;36654;45.042;38.994;2023-03-23T06:20:58;25.40;;;12.52;;
50683;SDS011;36654;45.042;38.994;2023-03-23T06:23:25;29.98;;;12.52;;
50683;SDS011;36654;45.042;38.994;2023-03-23T06:25:57;27.92;;;13.63;;
50683;SDS011;36654;45.042;38.994;2023-03-23T06:28:25;29.05;;;12.52;;
50683;SDS011;36654;45.042;38.994;2023-03-23T06:30:52;25.08;;;12.40;;
50683;SDS011;36654;45.042;38.994;2023-03-23T06:33:17;24.75;;;13.18;;
50683;SDS011;36654;45.042;38.994;2023-03-23T06:35:44;29.10;;;12.85;;
50683;SDS011;36654;45.042;38.994;2023-03-23T06:38:09;37.33;;;14.63;;
50683;SDS011;36654;45.042;38.994;2023-03-23T06:40:35;24.23;;;12.32;;
50683;SDS011;36654;45.042;38.994;2023-03-23T06:43:01;28.50;;;13.43;;
50683;SDS011;36654;45.042;38.994;2023-03-23T06:45:29;26.23;;;13.27;;
50683;SDS011;36654;45.042;38.994;2023-03-23T06:47:55;27.38;;;12.52;;
50683;SDS011;36654;45.042;38.994;2023-03-23T06:50:22;28.70;;;12.95;;
50683;SDS011;36654;45.042;38.994;2023-03-23T06:52:48;23.60;;;12.45;;
50683;SDS011;36654;45.042;38.994;2023-03-23T06:55:16;31.17;;;13.02;;
50683;SDS011;36654;45.042;38.994;2023-03-23T06:57:43;25.63;;;13.32;;
50683;SDS011;36654;45.042;38.994;2023-03-23T07:00:10;32.17;;;13.15;;
50683;SDS011;36654;45.042;38.994;2023-03-23T07:02:38;26.67;;;13.73;;
50683;SDS011;36654;45.042;38.994;2023-03-23T07:05:06;30.90;;;13.10;;
50683;SDS011;36654;45.042;38.994;2023-03-23T07:07:34;24.40;;;13.23;;
50683;SDS011;36654;45.042;38.994;2023-03-23T07:10:00;27.05;;;13.18;;
50683;SDS011;36654;45.042;38.994;2023-03-23T07:12:27;35.40;;;12.60;;
50683;SDS011;36654;45.042;38.994;2023-03-23T07:14:53;23.25;;;12.23;;
50683;SDS011;36654;45.042;38.994;2023-03-23T07:17:20;35.75;;;12.90;;
50683;SDS011;36654;45.042;38.994;2023-03-23T07:19:46;27.33;;;12.98;;
50683;SDS011;36654;45.042;38.994;2023-03-23T07:22:11;25.20;;;13.38;;
50683;SDS011;36654;45.042;38.994;2023-03-23T07:24:37;23.00;;;11.82;;
50683;SDS011;36654;45.042;38.994;2023-03-23T07:27:02;31.30;;;11.95;;
50683;SDS011;36654;45.042;38.994;2023-03-23T07:29:28;24.27;;;12.52;;
50683;SDS011;36654;45.042;38.994;2023-03-23T07:31:54;28.63;;;12.52;;
50683;SDS011;36654;45.042;38.994;2023-03-23T07:34:20;26.83;;;12.68;;
50683;SDS011;36654;45.042;38.994;2023-03-23T07:36:46;26.50;;;13.75;;
50683;SDS011;36654;45.042;38.994;2023-03-23T07:39:12;27.25;;;13.25;;
50683;SDS011;36654;45.042;38.994;2023-03-23T07:41:38;20.75;;;12.48;;
50683;SDS011;36654;45.042;38.994;2023-03-23T07:44:04;28.60;;;13.25;;
50683;SDS011;36654;45.042;38.994;2023-03-23T07:46:30;28.35;;;13.35;;
50683;SDS011;36654;45.042;38.994;2023-03-23T07:48:57;24.70;;;13.38;;
50683;SDS011;36654;45.042;38.994;2023-03-23T07:51:23;21.42;;;11.30;;
50683;SDS011;36654;45.042;38.994;2023-03-23T07:53:49;21.35;;;12.43;;
50683;SDS011;36654;45.042;38.994;2023-03-23T07:56:16;28.42;;;13.90;;
50683;SDS011;36654;45.042;38.994;2023-03-23T07:58:44;25.10;;;11.93;;
50683;SDS011;36654;45.042;38.994;2023-03-23T08:01:11;23.67;;;12.20;;
50683;SDS011;36654;45.042;38.994;2023-03-23T08:03:37;20.45;;;12.68;;
50683;SDS011;36654;45.042;38.994;2023-03-23T08:06:03;23.75;;;13.25;;
50683;SDS011;36654;45.042;38.994;2023-03-23T08:08:30;24.88;;;14.52;;
50683;SDS011;36654;45.042;38.994;2023-03-23T08:10:56;23.52;;;12.73;;
50683;SDS011;36654;45.042;38.994;2023-03-23T08:13:22;32.28;;;13.63;;
50683;SDS011;36654;45.042;38.994;2023-03-23T08:15:48;28.92;;;14.15;;
50683;SDS011;36654;45.042;38.994;2023-03-23T08:18:14;20.60;;;11.63;;
50683;SDS011;36654;45.042;38.994;2023-03-23T08:20:40;30.27;;;12.18;;
50683;SDS011;36654;45.042;38.994;2023-03-23T08:23:06;24.40;;;13.80;;
50683;SDS011;36654;45.042;38.994;2023-03-23T08:25:32;19.90;;;13.10;;
50683;SDS011;36654;45.042;38.994;2023-03-23T08:27:59;25.40;;;12.48;;
50683;SDS011;36654;45.042;38.994;2023-03-23T08:30:26;27.77;;;13.57;;
50683;SDS011;36654;45.042;38.994;2023-03-23T08:32:55;22.85;;;12.13;;
50683;SDS011;36654;45.042;38.994;2023-03-23T08:35:22;18.98;;;11.40;;
50683;SDS011;36654;45.042;38.994;2023-03-23T08:37:48;26.00;;;11.85;;
50683;SDS011;36654;45.042;38.994;2023-03-23T08:40:16;27.00;;;12.45;;
50683;SDS011;36654;45.042;38.994;2023-03-23T08:42:44;17.35;;;11.13;;
50683;SDS011;36654;45.042;38.994;2023-03-23T08:45:12;21.60;;;11.10;;
50683;SDS011;36654;45.042;38.994;2023-03-23T08:47:41;23.38;;;12.43;;
50683;SDS011;36654;45.042;38.994;2023-03-23T08:50:13;23.15;;;10.95;;
50683;SDS011;36654;45.042;38.994;2023-03-23T08:52:40;26.77;;;11.63;;
50683;SDS011;36654;45.042;38.994;2023-03-23T08:55:06;26.38;;;11.13;;
50683;SDS011;36654;45.042;38.994;2023-03-23T08:57:34;19.90;;;11.63;;
50683;SDS011;36654;45.042;38.994;2023-03-23T09:00:02;20.52;;;10.95;;
50683;SDS011;36654;45.042;38.994;2023-03-23T09:02:39;23.42;;;11.07;;
50683;SDS011;36654;45.042;38.994;2023-03-23T09:05:07;23.38;;;10.90;;
50683;SDS011;36654;45.042;38.994;2023-03-23T09:07:35;20.27;;;10.48;;
50683;SDS011;36654;45.042;38.994;2023-03-23T09:10:01;20.65;;;11.20;;
50683;SDS011;36654;45.042;38.994;2023-03-23T09:12:27;23.38;;;11.15;;
50683;SDS011;36654;45.042;38.994;2023-03-23T09:14:53;23.88;;;12.55;;
50683;SDS011;36654;45.042;38.994;2023-03-23T09:17:18;25.80;;;11.63;;
50683;SDS011;36654;45.042;38.994;2023-03-23T09:19:44;24.00;;;12.45;;
50683;SDS011;36654;45.042;38.994;2023-03-23T09:22:09;19.38;;;11.57;;
50683;SDS011;36654;45.042;38.994;2023-03-23T09:24:35;21.23;;;11.20;;
50683;SDS011;36654;45.042;38.994;2023-03-23T09:27:02;24.27;;;12.07;;
50683;SDS011;36654;45.042;38.994;2023-03-23T09:29:28;26.25;;;11.13;;
50683;SDS011;36654;45.042;38.994;2023-03-23T09:31:54;23.23;;;11.85;;
50683;SDS011;36654;45.042;38.994;2023-03-23T09:34:21;20.60;;;11.68;;
50683;SDS011;36654;45.042;38.994;2023-03-23T09:36:47;23.45;;;10.73;;
50683;SDS011;36654;45.042;38.994;2023-03-23T09:39:14;21.15;;;11.00;;
50683;SDS011;36654;45.042;38.994;2023-03-23T09:44:44;21.05;;;10.85;;
50683;SDS011;36654;45.042;38.994;2023-03-23T09:50:09;23.48;;;11.50;;
50683;SDS011;36654;45.042;38.994;2023-03-23T09:52:46;22.80;;;12.07;;
50683;SDS011;36654;45.042;38.994;2023-03-23T09:55:17;21.98;;;12.55;;
50683;SDS011;36654;45.042;38.994;2023-03-23T10:05:47;21.88;;;11.40;;
50683;SDS011;36654;45.042;38.994;2023-03-23T10:08:25;22.33;;;11.10;;
50683;SDS011;36654;45.042;38.994;2023-03-23T10:10:58;23.50;;;11.35;;
50683;SDS011;36654;45.042;38.994;2023-03-23T10:13:44;25.40;;;12.15;;
50683;SDS011;36654;45.042;38.994;2023-03-23T10:16:29;22.13;;;12.07;;
50683;SDS011;36654;45.042;38.994;2023-03-23T10:18:58;21.75;;;11.35;;
50683;SDS011;36654;45.042;38.994;2023-03-23T10:21:29;22.45;;;12.48;;
50683;SDS011;36654;45.042;38.994;2023-03-23T10:28:58;19.73;;;10.32;;
50683;SDS011;36654;45.042;38.994;2023-03-23T10:31:40;20.85;;;11.80;;
50683;SDS011;36654;45.042;38.994;2023-03-23T10:34:13;23.77;;;11.85;;
50683;SDS011;36654;45.042;38.994;2023-03-23T10:39:48;20.90;;;11.13;;
50683;SDS011;36654;45.042;38.994;2023-03-23T10:44:58;26.42;;;13.18;;
50683;SDS011;36654;45.042;38.994;2023-03-23T10:47:26;21.63;;;13.35;;
50683;SDS011;36654;45.042;38.994;2023-03-23T10:49:58;25.85;;;12.73;;
50683;SDS011;36654;45.042;38.994;2023-03-23T10:55:16;23.00;;;12.43;;
50683;SDS011;36654;45.042;38.994;2023-03-23T10:57:47;25.75;;;12.32;;
50683;SDS011;36654;45.042;38.994;2023-03-23T11:00:39;22.33;;;12.05;;
50683;SDS011;36654;45.042;38.994;2023-03-23T11:05:42;24.70;;;12.65;;
50683;SDS011;36654;45.042;38.994;2023-03-23T11:08:12;26.23;;;13.10;;
50683;SDS011;36654;45.042;38.994;2023-03-23T11:10:42;20.67;;;12.50;;
50683;SDS011;36654;45.042;38.994;2023-03-23T11:13:17;25.35;;;13.32;;
50683;SDS011;36654;45.042;38.994;2023-03-23T11:15:45;22.27;;;12.10;;
50683;SDS011;36654;45.042;38.994;2023-03-23T11:18:18;25.45;;;12.63;;
50683;SDS011;36654;45.042;38.994;2023-03-23T11:20:50;26.42;;;13.52;;
50683;SDS011;36654;45.042;38.994;2023-03-23T11:28:27;21.90;;;12.73;;
50683;SDS011;36654;45.042;38.994;2023-03-23T11:30:57;22.70;;;11.57;;
50683;SDS011;36654;45.042;38.994;2023-03-23T11:33:28;27.33;;;12.55;;
50683;SDS011;36654;45.042;38.994;2023-03-23T11:35:55;21.23;;;12.40;;
50683;SDS011;36654;45.042;38.994;2023-03-23T11:38:22;31.65;;;12.10;;
50683;SDS011;36654;45.042;38.994;2023-03-23T11:40:52;25.58;;;12.68;;
50683;SDS011;36654;45.042;38.994;2023-03-23T11:43:19;21.75;;;12.52;;
50683;SDS011;36654;45.042;38.994;2023-03-23T11:48:40;33.42;;;19.98;;
50683;SDS011;36654;45.042;38.994;2023-03-23T11:51:26;23.48;;;13.70;;
50683;SDS011;36654;45.042;38.994;2023-03-23T11:56:43;25.60;;;12.50;;
50683;SDS011;36654;45.042;38.994;2023-03-23T11:59:15;23.15;;;11.82;;
50683;SDS011;36654;45.042;38.994;2023-03-23T12:01:47;22.65;;;12.23;;
50683;SDS011;36654;45.042;38.994;2023-03-23T12:07:24;22.42;;;13.43;;
50683;SDS011;36654;45.042;38.994;2023-03-23T12:15:43;21.73;;;12.77;;
50683;SDS011;36654;45.042;38.994;2023-03-23T12:26:32;31.15;;;15.18;;
50683;SDS011;36654;45.042;38.994;2023-03-23T12:32:00;28.85;;;15.15;;
50683;SDS011;36654;45.042;38.994;2023-03-23T12:34:58;27.23;;;15.98;;
50683;SDS011;36654;45.042;38.994;2023-03-23T12:40:39;32.17;;;15.98;;
50683;SDS011;36654;45.042;38.994;2023-03-23T12:49:02;31.27;;;16.45;;
50683;SDS011;36654;45.042;38.994;2023-03-23T12:51:40;28.75;;;16.38;;
50683;SDS011;36654;45.042;38.994;2023-03-23T12:57:12;27.95;;;15.25;;
50683;SDS011;36654;45.042;38.994;2023-03-23T12:59:44;29.80;;;16.27;;
50683;SDS011;36654;45.042;38.994;2023-03-23T13:02:25;30.52;;;18.00;;
50683;SDS011;36654;45.042;38.994;2023-03-23T13:08:04;35.53;;;17.35;;
50683;SDS011;36654;45.042;38.994;2023-03-23T13:10:39;26.67;;;15.48;;
50683;SDS011;36654;45.042;38.994;2023-03-23T13:13:18;29.50;;;16.70;;
50683;SDS011;36654;45.042;38.994;2023-03-23T13:18:59;29.58;;;15.57;;
50683;SDS011;36654;45.042;38.994;2023-03-23T13:21:34;28.88;;;15.93;;
50683;SDS011;36654;45.042;38.994;2023-03-23T13:24:03;28.90;;;15.15;;
50683;SDS011;36654;45.042;38.994;2023-03-23T13:26:32;29.15;;;16.30;;
50683;SDS011;36654;45.042;38.994;2023-03-23T13:31:44;28.65;;;16.05;;
50683;SDS011;36654;45.042;38.994;2023-03-23T13:36:54;28.80;;;15.55;;
50683;SDS011;36654;45.042;38.994;2023-03-23T13:39:29;24.30;;;14.90;;
50683;SDS011;36654;45.042;38.994;2023-03-23T13:44:54;27.52;;;13.82;;
50683;SDS011;36654;45.042;38.994;2023-03-23T13:47:36;25.83;;;14.60;;
50683;SDS011;36654;45.042;38.994;2023-03-23T13:57:50;24.45;;;14.38;;
50683;SDS011;36654;45.042;38.994;2023-03-23T14:10:54;22.83;;;13.20;;
50683;SDS011;36654;45.042;38.994;2023-03-23T14:16:15;20.23;;;12.27;;
50683;SDS011;36654;45.042;38.994;2023-03-23T14:18:53;18.50;;;10.65;;
50683;SDS011;36654;45.042;38.994;2023-03-23T14:21:33;18.08;;;10.25;;
50683;SDS011;36654;45.042;38.994;2023-03-23T14:24:21;21.27;;;11.25;;
50683;SDS011;36654;45.042;38.994;2023-03-23T14:26:52;17.85;;;10.48;;
50683;SDS011;36654;45.042;38.994;2023-03-23T14:29:26;22.52;;;11.48;;
50683;SDS011;36654;45.042;38.994;2023-03-23T14:31:53;20.63;;;11.50;;
50683;SDS011;36654;45.042;38.994;2023-03-23T14:34:23;22.70;;;10.90;;
50683;SDS011;36654;45.042;38.994;2023-03-23T14:36:52;22.85;;;11.85;;
50683;SDS011;36654;45.042;38.994;2023-03-23T14:39:33;20.27;;;11.32;;
50683;SDS011;36654;45.042;38.994;2023-03-23T14:42:09;24.90;;;10.77;;
50683;SDS011;36654;45.042;38.994;2023-03-23T14:44:39;23.05;;;10.38;;
50683;SDS011;36654;45.042;38.994;2023-03-23T14:47:16;20.55;;;11.45;;
50683;SDS011;36654;45.042;38.994;2023-03-23T14:49:46;20.65;;;10.90;;
50683;SDS011;36654;45.042;38.994;2023-03-23T14:52:15;17.92;;;10.90;;
50683;SDS011;36654;45.042;38.994;2023-03-23T14:54:43;21.35;;;11.93;;
50683;SDS011;36654;45.042;38.994;2023-03-23T14:59:42;29.17;;;13.07;;
50683;SDS011;36654;45.042;38.994;2023-03-23T15:02:13;20.05;;;11.90;;
50683;SDS011;36654;45.042;38.994;2023-03-23T15:04:44;25.58;;;11.98;;
50683;SDS011;36654;45.042;38.994;2023-03-23T15:07:12;25.70;;;12.25;;
50683;SDS011;36654;45.042;38.994;2023-03-23T15:09:42;20.30;;;12.05;;
50683;SDS011;36654;45.042;38.994;2023-03-23T15:12:13;21.38;;;12.27;;
50683;SDS011;36654;45.042;38.994;2023-03-23T15:14:50;23.88;;;12.18;;
50683;SDS011;36654;45.042;38.994;2023-03-23T15:17:28;25.77;;;13.25;;
50683;SDS011;36654;45.042;38.994;2023-03-23T15:19:56;19.98;;;10.98;;
50683;SDS011;36654;45.042;38.994;2023-03-23T15:22:24;24.02;;;12.30;;
50683;SDS011;36654;45.042;38.994;2023-03-23T15:27:30;18.58;;;10.40;;
50683;SDS011;36654;45.042;38.994;2023-03-23T15:29:59;21.48;;;11.23;;
50683;SDS011;36654;45.042;38.994;2023-03-23T15:32:40;19.70;;;12.07;;
50683;SDS011;36654;45.042;38.994;2023-03-23T15:35:14;22.52;;;11.73;;
50683;SDS011;36654;45.042;38.994;2023-03-23T15:37:43;26.50;;;13.73;;
50683;SDS011;36654;45.042;38.994;2023-03-23T15:40:21;19.70;;;10.82;;
50683;SDS011;36654;45.042;38.994;2023-03-23T15:42:48;24.70;;;11.57;;
50683;SDS011;36654;45.042;38.994;2023-03-23T15:45:24;21.80;;;10.95;;
50683;SDS011;36654;45.042;38.994;2023-03-23T15:47:52;15.85;;;9.68;;
50683;SDS011;36654;45.042;38.994;2023-03-23T15:52:45;21.10;;;9.02;;
50683;SDS011;36654;45.042;38.994;2023-03-23T15:55:22;14.45;;;9.05;;
50683;SDS011;36654;45.042;38.994;2023-03-23T15:57:50;20.10;;;9.55;;
50683;SDS011;36654;45.042;38.994;2023-03-23T16:00:17;18.45;;;9.73;;
50683;SDS011;36654;45.042;38.994;2023-03-23T16:02:45;23.63;;;10.65;;
50683;SDS011;36654;45.042;38.994;2023-03-23T16:07:38;19.15;;;9.95;;
50683;SDS011;36654;45.042;38.994;2023-03-23T16:10:05;15.35;;;10.20;;
50683;SDS011;36654;45.042;38.994;2023-03-23T16:12:32;23.13;;;12.13;;
50683;SDS011;36654;45.042;38.994;2023-03-23T16:14:58;18.73;;;9.65;;
50683;SDS011;36654;45.042;38.994;2023-03-23T16:17:24;20.23;;;11.10;;
50683;SDS011;36654;45.042;38.994;2023-03-23T16:19:50;24.67;;;11.95;;
50683;SDS011;36654;45.042;38.994;2023-03-23T16:22:16;20.63;;;11.73;;
50683;SDS011;36654;45.042;38.994;2023-03-23T16:24:41;23.70;;;12.23;;
50683;SDS011;36654;45.042;38.994;2023-03-23T16:27:08;27.15;;;14.55;;
50683;SDS011;36654;45.042;38.994;2023-03-23T16:29:35;25.13;;;11.80;;
50683;SDS011;36654;45.042;38.994;2023-03-23T16:32:00;23.20;;;12.25;;
50683;SDS011;36654;45.042;38.994;2023-03-23T16:34:26;24.27;;;12.00;;
50683;SDS011;36654;45.042;38.994;2023-03-23T16:36:54;20.75;;;11.88;;
50683;SDS011;36654;45.042;38.994;2023-03-23T16:39:20;21.70;;;12.52;;
50683;SDS011;36654;45.042;38.994;2023-03-23T16:41:47;22.13;;;12.18;;
50683;SDS011;36654;45.042;38.994;2023-03-23T16:44:12;23.27;;;12.65;;
50683;SDS011;36654;45.042;38.994;2023-03-23T16:46:38;26.80;;;13.43;;
50683;SDS011;36654;45.042;38.994;2023-03-23T16:49:04;22.45;;;12.70;;
50683;SDS011;36654;45.042;38.994;2023-03-23T16:51:30;19.63;;;13.25;;